createdAt,value
2022-10-05T00:00:28.926Z,96.85
2022-10-05T00:02:57.122Z,96.44
2022-10-05T00:05:29.757Z,96.53
2022-10-05T00:08:04.984Z,96.60
2022-10-05T00:10:33.499Z,97.81
2022-10-05T00:13:01.068Z,98.43
2022-10-05T00:15:30.576Z,97.26
2022-10-05T00:17:58.778Z,97.53
2022-10-05T00:20:26.970Z,97.08
2022-10-05T00:22:57.825Z,97.48
2022-10-05T00:25:25.661Z,95.56
2022-10-05T00:27:55.966Z,95.98
2022-10-05T00:30:31.033Z,96.52
2022-10-05T00:33:00.278Z,97.38
2022-10-05T00:35:27.831Z,97.19
2022-10-05T00:37:55.905Z,97.73
2022-10-05T00:40:46.247Z,97.61
2022-10-05T00:43:37.200Z,97.64
2022-10-05T00:46:12.256Z,97.95
2022-10-05T00:48:49.674Z,98.04
2022-10-05T00:51:28.473Z,97.45
2022-10-05T00:54:09.041Z,99.16
2022-10-05T00:57:06.275Z,98.47
2022-10-05T00:59:46.005Z,98.81
2022-10-05T01:02:20.810Z,99.06
2022-10-05T01:04:54.382Z,99.79
2022-10-05T01:07:35.200Z,99.67
2022-10-05T01:10:10.628Z,99.78
2022-10-05T01:12:47.795Z,100.00
2022-10-05T01:15:22.675Z,100.00
2022-10-05T01:17:57.196Z,100.00
2022-10-05T01:20:41.684Z,100.00
2022-10-05T01:23:39.167Z,99.97
2022-10-05T01:26:35.931Z,100.00
2022-10-05T01:29:12.267Z,100.00
2022-10-05T01:31:47.394Z,100.00
2022-10-05T01:34:27.002Z,100.00
2022-10-05T01:37:04.403Z,100.00
2022-10-05T01:39:44.266Z,100.00
2022-10-05T01:42:21.953Z,100.00
2022-10-05T01:45:00.207Z,100.00
2022-10-05T01:47:36.901Z,100.00
2022-10-05T01:50:11.600Z,100.00
2022-10-05T01:52:48.689Z,100.00
2022-10-05T01:55:25.028Z,100.00
2022-10-05T01:58:06.270Z,100.00
2022-10-05T02:00:44.568Z,100.00
2022-10-05T02:03:18.139Z,100.00
2022-10-05T02:05:52.376Z,100.00
2022-10-05T02:08:27.467Z,100.00
2022-10-05T02:11:01.373Z,100.00
2022-10-05T02:13:36.908Z,100.00
2022-10-05T02:16:11.349Z,100.00
2022-10-05T02:18:47.297Z,100.00
2022-10-05T02:21:15.350Z,100.00
2022-10-05T02:23:46.217Z,100.00
2022-10-05T02:26:15.697Z,100.00
2022-10-05T02:28:47.621Z,100.00
2022-10-05T02:31:21.286Z,100.00
2022-10-05T02:33:49.019Z,100.00
2022-10-05T02:36:22.084Z,100.00
2022-10-05T02:39:02.902Z,100.00
2022-10-05T02:41:46.018Z,100.00
2022-10-05T02:44:23.527Z,100.00
2022-10-05T02:47:00.148Z,100.00
2022-10-05T02:49:37.818Z,100.00
2022-10-05T02:52:11.883Z,100.00
2022-10-05T02:54:49.485Z,100.00
2022-10-05T02:57:27.963Z,100.00
2022-10-05T03:00:03.378Z,100.00
2022-10-05T03:02:40.723Z,100.00
2022-10-05T03:05:19.541Z,100.00
2022-10-05T03:07:55.749Z,100.00
2022-10-05T03:10:29.921Z,100.00
2022-10-05T03:13:05.930Z,100.00
2022-10-05T03:15:58.402Z,100.00
2022-10-05T03:18:39.366Z,100.00
2022-10-05T03:21:23.737Z,100.00
2022-10-05T03:24:08.090Z,100.00
2022-10-05T03:26:46.661Z,100.00
2022-10-05T03:29:29.174Z,100.00
2022-10-05T03:32:05.937Z,100.00
2022-10-05T03:34:39.021Z,100.00
2022-10-05T03:37:14.472Z,100.00
2022-10-05T03:39:49.058Z,100.00
2022-10-05T03:42:24.441Z,100.00
2022-10-05T03:45:03.076Z,100.00
2022-10-05T03:47:39.806Z,100.00
2022-10-05T03:50:23.320Z,100.00
2022-10-05T03:52:56.352Z,99.91
2022-10-05T03:55:28.484Z,100.00
2022-10-05T03:57:59.747Z,100.00
2022-10-05T04:00:30.847Z,99.98
2022-10-05T04:03:04.194Z,100.00
2022-10-05T04:05:41.846Z,100.00
2022-10-05T04:08:16.782Z,100.00
2022-10-05T04:10:49.513Z,100.00
2022-10-05T04:13:23.065Z,100.00
2022-10-05T04:15:57.921Z,100.00
2022-10-05T04:18:28.976Z,100.00
2022-10-05T04:21:03.457Z,99.08
2022-10-05T04:23:40.933Z,99.56
2022-10-05T04:26:14.397Z,99.50
2022-10-05T04:28:50.927Z,99.73
2022-10-05T04:31:33.732Z,99.32
2022-10-05T04:34:10.348Z,98.99
2022-10-05T04:36:46.184Z,99.47
2022-10-05T04:39:23.772Z,99.25
2022-10-05T04:42:06.407Z,99.22
2022-10-05T04:44:54.793Z,99.36
2022-10-05T04:47:58.004Z,99.01
2022-10-05T04:50:36.851Z,99.39
2022-10-05T04:53:14.157Z,99.71
2022-10-05T04:55:50.723Z,99.14
2022-10-05T04:58:33.126Z,99.26
2022-10-05T05:01:11.201Z,99.66
2022-10-05T05:03:55.111Z,99.63
2022-10-05T05:06:34.512Z,99.86
2022-10-05T05:09:50.750Z,99.81
2022-10-05T05:12:29.874Z,99.79
2022-10-05T05:15:20.683Z,100.00
2022-10-05T05:18:06.627Z,100.00
2022-10-05T05:20:47.785Z,100.00
2022-10-05T05:23:26.611Z,100.00
2022-10-05T05:26:06.058Z,100.00
2022-10-05T05:28:44.242Z,100.00
2022-10-05T05:31:25.172Z,100.00
2022-10-05T05:34:01.211Z,100.00
2022-10-05T05:36:46.611Z,100.00
2022-10-05T05:39:23.749Z,100.00
2022-10-05T05:41:59.594Z,100.00
2022-10-05T05:44:28.983Z,100.00
2022-10-05T05:47:05.034Z,100.00
2022-10-05T05:49:47.006Z,99.27
2022-10-05T05:52:22.404Z,98.60
2022-10-05T05:54:54.875Z,98.03
2022-10-05T05:57:27.958Z,96.29
2022-10-05T06:00:04.673Z,95.97
2022-10-05T06:02:40.660Z,94.79
2022-10-05T06:05:37.661Z,94.63
2022-10-05T06:08:13.971Z,94.36
2022-10-05T06:10:49.759Z,93.49
2022-10-05T06:13:26.644Z,92.96
2022-10-05T06:15:58.794Z,93.11
2022-10-05T06:18:30.564Z,93.17
2022-10-05T06:21:01.690Z,91.40
2022-10-05T06:23:38.153Z,91.13
2022-10-05T06:26:17.970Z,91.26
2022-10-05T06:28:55.535Z,92.19
2022-10-05T06:31:35.181Z,90.23
2022-10-05T06:34:14.581Z,89.57
2022-10-05T06:36:48.971Z,89.83
2022-10-05T06:39:39.463Z,89.89
2022-10-05T06:42:32.290Z,90.84
2022-10-05T06:45:07.856Z,89.53
2022-10-05T06:47:44.898Z,90.11
2022-10-05T06:50:19.013Z,89.35
2022-10-05T06:53:00.786Z,88.78
2022-10-05T06:55:39.413Z,87.21
2022-10-05T06:58:23.150Z,88.06
2022-10-05T07:00:58.063Z,86.68
2022-10-05T07:03:40.937Z,86.96
2022-10-05T07:06:16.067Z,85.34
2022-10-05T07:09:11.905Z,83.48
2022-10-05T07:12:03.746Z,82.94
2022-10-05T07:14:49.083Z,83.76
2022-10-05T07:17:30.700Z,85.58
2022-10-05T07:20:08.597Z,82.07
2022-10-05T07:22:54.423Z,82.20
2022-10-05T07:25:28.166Z,82.54
2022-10-05T07:28:00.848Z,80.95
2022-10-05T07:30:31.663Z,80.76
2022-10-05T07:33:09.931Z,80.32
2022-10-05T07:35:48.521Z,78.58
2022-10-05T07:38:24.706Z,78.81
2022-10-05T07:40:58.982Z,79.01
2022-10-05T07:43:57.906Z,79.50
2022-10-05T07:46:32.221Z,77.00
2022-10-05T07:49:09.438Z,78.36
2022-10-05T07:51:40.162Z,79.25
2022-10-05T07:54:18.157Z,77.84
2022-10-05T07:56:50.126Z,74.65
2022-10-05T07:59:29.039Z,75.08
2022-10-05T08:02:07.592Z,75.17
2022-10-05T08:04:46.303Z,73.38
2022-10-05T08:07:16.918Z,73.55
2022-10-05T08:09:52.916Z,75.06
2022-10-05T08:12:28.961Z,72.75
2022-10-05T08:14:58.710Z,72.79
2022-10-05T08:17:37.966Z,72.44
2022-10-05T08:20:28.928Z,71.42
2022-10-05T08:23:01.107Z,72.94
2022-10-05T08:25:41.052Z,71.78
2022-10-05T08:28:15.868Z,71.07
2022-10-05T08:30:56.089Z,70.29
2022-10-05T08:33:26.462Z,71.94
2022-10-05T08:36:06.132Z,70.56
2022-10-05T08:38:35.074Z,69.88
2022-10-05T08:41:30.748Z,68.50
2022-10-05T08:44:39.488Z,68.88
2022-10-05T08:47:18.503Z,69.62
2022-10-05T08:50:03.099Z,67.24
2022-10-05T08:52:44.528Z,68.26
2022-10-05T08:55:29.248Z,66.76
2022-10-05T08:58:29.188Z,66.07
2022-10-05T09:01:08.151Z,64.10
2022-10-05T09:04:01.193Z,64.37
2022-10-05T09:07:14.950Z,65.36
2022-10-05T09:10:31.987Z,66.08
2022-10-05T09:13:39.394Z,64.63
2022-10-05T09:16:37.329Z,64.24
2022-10-05T09:19:31.941Z,63.18
2022-10-05T09:22:14.019Z,60.59
2022-10-05T09:24:54.871Z,62.10
2022-10-05T09:27:37.097Z,62.54
2022-10-05T09:30:23.161Z,65.17
2022-10-05T09:33:22.967Z,62.55
2022-10-05T09:36:14.262Z,62.40
2022-10-05T09:39:34.630Z,62.21
2022-10-05T09:42:23.526Z,60.60
2022-10-05T09:45:21.506Z,58.39
2022-10-05T09:48:33.314Z,57.50
2022-10-05T09:51:33.632Z,54.37
2022-10-05T09:54:42.798Z,54.72
2022-10-05T09:57:54.860Z,57.29
2022-10-05T10:00:32.794Z,57.61
2022-10-05T10:03:37.582Z,56.67
2022-10-05T10:06:21.236Z,57.90
2022-10-05T10:09:27.350Z,57.45
2022-10-05T10:12:31.529Z,56.80
2022-10-05T10:15:30.985Z,52.62
2022-10-05T10:18:17.336Z,53.61
2022-10-05T10:21:07.109Z,52.13
2022-10-05T10:24:19.707Z,52.34
2022-10-05T10:27:13.812Z,52.75
2022-10-05T10:30:16.194Z,54.25
2022-10-05T10:33:13.967Z,54.49
2022-10-05T10:35:48.198Z,53.89
2022-10-05T10:38:38.970Z,52.92
2022-10-05T10:41:47.944Z,51.66
2022-10-05T10:44:40.572Z,50.88
2022-10-05T10:47:38.280Z,50.24
2022-10-05T10:50:42.665Z,48.61
2022-10-05T10:53:46.704Z,50.69
2022-10-05T10:56:50.863Z,51.65
2022-10-05T10:59:44.731Z,51.09
2022-10-05T11:02:33.283Z,53.29
2022-10-05T11:05:30.199Z,52.84
2022-10-05T11:08:34.076Z,51.32
2022-10-05T11:11:25.078Z,51.06
2022-10-05T11:14:11.295Z,53.20
2022-10-05T11:17:06.965Z,52.79
2022-10-05T11:20:05.110Z,52.81
2022-10-05T11:22:50.334Z,51.75
2022-10-05T11:25:42.109Z,51.67
2022-10-05T11:28:19.877Z,50.92
2022-10-05T11:31:29.838Z,49.69
2022-10-05T11:34:38.462Z,50.59
2022-10-05T11:37:48.811Z,51.54
2022-10-05T11:40:38.720Z,51.87
2022-10-05T11:43:47.738Z,49.79
2022-10-05T11:46:24.295Z,51.85
2022-10-05T11:49:05.282Z,51.57
2022-10-05T11:51:47.602Z,49.82
2022-10-05T11:55:11.112Z,47.98
2022-10-05T11:57:45.193Z,48.30
2022-10-05T12:00:17.954Z,48.89
2022-10-05T12:03:03.275Z,48.07
2022-10-05T12:05:40.410Z,47.45
2022-10-05T12:08:24.146Z,49.58
2022-10-05T12:11:08.763Z,50.23
2022-10-05T12:13:42.156Z,50.04
2022-10-05T12:16:16.244Z,48.47
2022-10-05T12:18:53.482Z,48.59
2022-10-05T12:21:32.381Z,47.22
2022-10-05T12:24:07.390Z,48.92
2022-10-05T12:26:40.740Z,48.37
2022-10-05T12:29:16.384Z,49.05
2022-10-05T12:31:55.862Z,48.42
2022-10-05T12:34:35.473Z,50.48
2022-10-05T12:37:13.053Z,48.88
2022-10-05T12:39:48.547Z,47.77
2022-10-05T12:42:31.506Z,47.91
2022-10-05T12:45:26.908Z,48.29
2022-10-05T12:48:11.042Z,50.21
2022-10-05T12:50:42.030Z,48.38
2022-10-05T12:53:25.918Z,50.29
2022-10-05T12:56:00.210Z,47.98
2022-10-05T12:58:42.038Z,50.04
2022-10-05T13:01:21.672Z,50.78
2022-10-05T13:03:56.596Z,50.56
2022-10-05T13:06:37.425Z,52.79
2022-10-05T13:09:11.984Z,50.62
2022-10-05T13:11:46.260Z,50.53
2022-10-05T13:14:23.533Z,51.88
2022-10-05T13:16:57.079Z,52.12
2022-10-05T13:19:34.571Z,52.02
2022-10-05T13:22:18.459Z,52.39
2022-10-05T13:24:56.344Z,51.98
2022-10-05T13:27:27.335Z,51.66
2022-10-05T13:30:02.316Z,52.11
2022-10-05T13:32:35.049Z,53.63
2022-10-05T13:35:20.663Z,51.44
2022-10-05T13:38:00.222Z,52.80
2022-10-05T13:40:34.698Z,52.55
2022-10-05T13:43:07.349Z,53.29
2022-10-05T13:45:43.138Z,52.19
2022-10-05T13:48:23.243Z,52.86
2022-10-05T13:51:02.064Z,52.07
2022-10-05T13:53:36.384Z,52.08
2022-10-05T13:56:14.861Z,52.75
2022-10-05T13:58:50.715Z,52.51
2022-10-05T14:01:31.292Z,51.50
2022-10-05T14:04:09.837Z,52.19
2022-10-05T14:06:38.888Z,52.70
2022-10-05T14:09:12.993Z,52.67
2022-10-05T14:11:49.507Z,52.68
2022-10-05T14:14:25.555Z,52.84
2022-10-05T14:16:56.987Z,53.06
2022-10-05T14:19:27.554Z,52.67
2022-10-05T14:22:00.933Z,53.97
2022-10-05T14:24:46.153Z,54.42
2022-10-05T14:27:25.834Z,54.93
2022-10-05T14:29:57.462Z,54.97
2022-10-05T14:32:30.606Z,54.87
2022-10-05T14:35:13.519Z,57.42
2022-10-05T14:37:49.863Z,56.15
2022-10-05T14:40:31.022Z,56.98
2022-10-05T14:43:01.925Z,56.16
2022-10-05T14:45:30.035Z,55.80
2022-10-05T14:48:11.018Z,55.15
2022-10-05T14:50:53.520Z,55.07
2022-10-05T14:53:22.587Z,54.80
2022-10-05T14:56:17.154Z,55.71
2022-10-05T14:59:07.041Z,55.31
2022-10-05T15:01:35.811Z,57.55
2022-10-05T15:04:23.604Z,58.02
2022-10-05T15:07:04.309Z,59.31
2022-10-05T15:09:49.370Z,60.19
2022-10-05T15:12:22.499Z,58.71
2022-10-05T15:14:53.215Z,60.50
2022-10-05T15:17:26.645Z,61.12
2022-10-05T15:20:03.381Z,59.67
2022-10-05T15:22:41.962Z,60.44
2022-10-05T15:25:15.092Z,61.91
2022-10-05T15:27:59.088Z,60.88
2022-10-05T15:30:26.811Z,60.82
2022-10-05T15:33:12.256Z,59.36
2022-10-05T15:36:14.279Z,60.21
2022-10-05T15:39:00.082Z,59.28
2022-10-05T15:41:48.081Z,61.19
2022-10-05T15:44:27.766Z,62.34
2022-10-05T15:47:01.754Z,64.58
2022-10-05T15:49:37.882Z,65.52
2022-10-05T15:52:18.800Z,66.22
2022-10-05T15:55:09.091Z,67.79
2022-10-05T15:57:45.493Z,65.74
2022-10-05T16:00:17.717Z,65.61
2022-10-05T16:02:51.875Z,66.34
2022-10-05T16:05:38.643Z,68.66
2022-10-05T16:08:16.477Z,69.31
2022-10-05T16:10:46.057Z,70.68
2022-10-05T16:13:24.513Z,71.95
2022-10-05T16:16:00.829Z,71.44
2022-10-05T16:18:52.470Z,71.55
2022-10-05T16:21:29.366Z,72.21
2022-10-05T16:24:19.546Z,72.91
2022-10-05T16:26:57.661Z,73.46
2022-10-05T16:29:40.039Z,72.16
2022-10-05T16:32:13.997Z,75.47
2022-10-05T16:34:56.051Z,76.29
2022-10-05T16:37:34.455Z,76.20
2022-10-05T16:40:14.285Z,76.56
2022-10-05T16:42:57.264Z,77.86
2022-10-05T16:45:45.322Z,79.60
2022-10-05T16:48:22.644Z,79.35
2022-10-05T16:51:03.809Z,79.64
2022-10-05T16:53:36.619Z,79.20
2022-10-05T16:56:11.789Z,80.11
2022-10-05T16:58:53.168Z,81.11
2022-10-05T17:01:34.123Z,81.06
2022-10-05T17:04:16.020Z,82.18
2022-10-05T17:07:04.927Z,81.58
2022-10-05T17:09:56.782Z,80.15
2022-10-05T17:12:38.678Z,80.85
2022-10-05T17:15:26.324Z,80.40
2022-10-05T17:18:18.844Z,81.16
2022-10-05T17:20:55.423Z,82.59
2022-10-05T17:23:32.287Z,82.51
2022-10-05T17:26:32.588Z,83.48
2022-10-05T17:29:13.379Z,82.54
2022-10-05T17:32:01.178Z,81.19
2022-10-05T17:34:36.841Z,81.86
2022-10-05T17:37:31.120Z,84.60
2022-10-05T17:39:59.299Z,83.12
2022-10-05T17:43:00.658Z,81.28
2022-10-05T17:45:51.620Z,81.08
2022-10-05T17:48:41.459Z,80.71
2022-10-05T17:51:58.097Z,83.53
2022-10-05T17:54:29.774Z,83.35
2022-10-05T17:57:20.108Z,85.02
2022-10-05T17:59:57.483Z,85.97
2022-10-05T18:02:40.602Z,84.68
2022-10-05T18:05:23.206Z,85.39
2022-10-05T18:08:28.937Z,85.31
2022-10-05T18:11:14.790Z,86.33
2022-10-05T18:13:45.069Z,87.15
2022-10-05T18:16:33.817Z,85.67
2022-10-05T18:19:14.800Z,86.37
2022-10-05T18:22:00.261Z,86.36
2022-10-05T18:24:55.837Z,85.69
2022-10-05T18:27:56.018Z,84.04
2022-10-05T18:30:25.646Z,85.90
2022-10-05T18:36:54.918Z,85.22
2022-10-05T18:39:45.416Z,87.22
2022-10-05T18:42:21.289Z,87.96
2022-10-05T18:44:55.549Z,86.18
2022-10-05T18:47:30.584Z,85.83
2022-10-05T18:50:12.649Z,87.22
2022-10-05T18:52:55.644Z,87.12
2022-10-05T18:55:30.104Z,86.30
2022-10-05T18:58:20.452Z,86.93
2022-10-05T19:01:13.348Z,88.10
2022-10-05T19:03:51.510Z,86.86
2022-10-05T19:06:25.425Z,87.22
2022-10-05T19:09:05.235Z,87.41
2022-10-05T19:11:42.607Z,86.77
2022-10-05T19:14:19.392Z,87.75
2022-10-05T19:17:00.172Z,88.41
2022-10-05T19:19:50.739Z,89.27
2022-10-05T19:22:31.132Z,87.76
2022-10-05T19:25:22.759Z,89.13
2022-10-05T19:28:02.498Z,88.61
2022-10-05T19:30:45.107Z,88.38
2022-10-05T19:33:31.946Z,89.04
2022-10-05T19:36:25.210Z,88.66
2022-10-05T19:39:01.622Z,89.35
2022-10-05T19:41:46.011Z,89.80
2022-10-05T19:44:23.051Z,90.57
2022-10-05T19:46:58.942Z,90.58
2022-10-05T19:49:37.295Z,89.21
2022-10-05T19:52:13.191Z,90.46
2022-10-05T19:54:41.455Z,91.45
2022-10-05T19:57:16.367Z,92.34
2022-10-05T19:59:47.964Z,91.89
2022-10-05T20:02:16.842Z,92.00
2022-10-05T20:04:46.590Z,92.63
2022-10-05T20:07:17.516Z,92.33
2022-10-05T20:09:54.146Z,91.67
2022-10-05T20:12:43.520Z,92.39
2022-10-05T20:15:18.895Z,92.82
2022-10-05T20:17:47.726Z,92.82
2022-10-05T20:20:28.620Z,92.57
2022-10-05T20:23:21.393Z,93.25
2022-10-05T20:25:49.768Z,92.76
2022-10-05T20:28:32.281Z,93.32
2022-10-05T20:31:00.817Z,93.50
2022-10-05T20:33:29.052Z,94.49
2022-10-05T20:35:57.036Z,93.62
2022-10-05T20:38:25.137Z,91.50
2022-10-05T20:40:52.966Z,91.01
2022-10-05T20:43:20.809Z,90.28
2022-10-05T20:45:50.066Z,90.78
2022-10-05T20:48:17.625Z,91.26
2022-10-05T20:50:45.720Z,90.87
2022-10-05T20:53:13.414Z,91.83
2022-10-05T20:55:41.286Z,90.54
2022-10-05T20:58:09.421Z,92.48
2022-10-05T21:00:37.150Z,90.95
2022-10-05T21:03:07.805Z,90.89
2022-10-05T21:05:36.469Z,91.62
2022-10-05T21:08:04.256Z,91.94
2022-10-05T21:10:32.150Z,91.93
2022-10-05T21:13:00.132Z,92.08
2022-10-05T21:15:27.686Z,89.88
2022-10-05T21:17:55.806Z,90.23
2022-10-05T21:20:24.929Z,90.75
2022-10-05T21:22:52.535Z,92.18
2022-10-05T21:25:20.196Z,90.88
2022-10-05T21:27:47.910Z,93.81
2022-10-05T21:30:15.540Z,92.26
2022-10-05T21:32:45.979Z,92.97
2022-10-05T21:35:13.930Z,91.33
2022-10-05T21:37:42.901Z,91.42
2022-10-05T21:40:11.163Z,91.93
2022-10-05T21:42:39.201Z,93.51
2022-10-05T21:45:08.545Z,94.60
2022-10-05T21:47:36.627Z,94.71
2022-10-05T21:50:05.068Z,94.44
2022-10-05T21:52:34.589Z,93.12
2022-10-05T21:55:05.741Z,93.50
2022-10-05T21:57:35.548Z,92.53
2022-10-05T22:00:04.714Z,93.63
2022-10-05T22:02:32.614Z,94.33
2022-10-05T22:05:00.213Z,93.77
2022-10-05T22:07:29.276Z,93.57
2022-10-05T22:09:57.282Z,94.05
2022-10-05T22:12:26.673Z,92.83
2022-10-05T22:14:55.642Z,93.03
2022-10-05T22:17:27.026Z,94.78
2022-10-05T22:19:55.823Z,93.41
2022-10-05T22:22:24.123Z,93.07
2022-10-05T22:24:53.126Z,92.76
2022-10-05T22:27:22.904Z,93.42
2022-10-05T22:29:52.047Z,93.94
2022-10-05T22:32:20.362Z,93.80
2022-10-05T22:34:48.102Z,94.00
2022-10-05T22:37:15.699Z,94.35
2022-10-05T22:39:43.778Z,94.22
2022-10-05T22:42:12.102Z,95.92
2022-10-05T22:44:39.696Z,96.13
2022-10-05T22:47:09.348Z,94.99
2022-10-05T22:49:37.935Z,96.10
2022-10-05T22:52:05.681Z,96.17
2022-10-05T22:54:37.324Z,94.97
2022-10-05T22:57:05.058Z,95.51
2022-10-05T22:59:35.437Z,94.78
2022-10-05T23:02:03.125Z,95.59
2022-10-05T23:04:32.251Z,93.60
2022-10-05T23:06:59.989Z,93.43
2022-10-05T23:09:28.404Z,95.46
2022-10-05T23:11:56.013Z,96.41
2022-10-05T23:14:24.900Z,94.32
2022-10-05T23:16:52.664Z,92.23
2022-10-05T23:19:22.116Z,94.54
2022-10-05T23:21:51.139Z,93.87
2022-10-05T23:24:19.894Z,93.39
2022-10-05T23:26:47.516Z,93.64
2022-10-05T23:29:15.326Z,93.77
2022-10-05T23:31:42.880Z,94.78
2022-10-05T23:34:10.563Z,95.31
2022-10-05T23:36:38.329Z,95.61
2022-10-05T23:39:07.259Z,95.87
2022-10-05T23:41:35.143Z,95.55
2022-10-05T23:44:03.007Z,97.40
2022-10-05T23:46:30.595Z,96.81
2022-10-05T23:48:58.144Z,96.73
2022-10-05T23:51:25.922Z,95.51
2022-10-05T23:53:53.575Z,95.30
2022-10-05T23:56:23.060Z,96.27
2022-10-05T23:58:50.719Z,95.22
